sensor_id;sensor_type;location;lat;lon;timestamp;temperature;humidity
40123;DHT22;25832;45.490;4.912;2023-09-12T00:00:58;22.80;67.40
40123;DHT22;25832;45.490;4.912;2023-09-12T00:03:30;22.80;67.40
40123;DHT22;25832;45.490;4.912;2023-09-12T00:05:57;22.80;67.40
40123;DHT22;25832;45.490;4.912;2023-09-12T00:08:24;22.80;67.40
40123;DHT22;25832;45.490;4.912;2023-09-12T00:11:09;22.80;67.40
40123;DHT22;25832;45.490;4.912;2023-09-12T00:13:37;22.80;67.10
40123;DHT22;25832;45.490;4.912;2023-09-12T00:16:03;22.80;67.10
40123;DHT22;25832;45.490;4.912;2023-09-12T00:18:30;22.70;66.90
40123;DHT22;25832;45.490;4.912;2023-09-12T00:20:56;22.80;66.90
40123;DHT22;25832;45.490;4.912;2023-09-12T00:23:22;22.80;67.00
40123;DHT22;25832;45.490;4.912;2023-09-12T00:25:50;22.80;67.00
40123;DHT22;25832;45.490;4.912;2023-09-12T00:28:17;22.80;67.00
40123;DHT22;25832;45.490;4.912;2023-09-12T00:30:43;22.70;66.80
40123;DHT22;25832;45.490;4.912;2023-09-12T00:33:09;22.70;66.90
40123;DHT22;25832;45.490;4.912;2023-09-12T00:35:34;22.70;66.60
40123;DHT22;25832;45.490;4.912;2023-09-12T00:38:00;22.70;66.70
40123;DHT22;25832;45.490;4.912;2023-09-12T00:40:26;22.70;66.50
40123;DHT22;25832;45.490;4.912;2023-09-12T00:42:51;22.60;66.50
40123;DHT22;25832;45.490;4.912;2023-09-12T00:45:17;22.60;66.50
40123;DHT22;25832;45.490;4.912;2023-09-12T00:47:43;22.60;66.30
40123;DHT22;25832;45.490;4.912;2023-09-12T00:50:09;22.60;66.10
40123;DHT22;25832;45.490;4.912;2023-09-12T00:52:36;22.60;66.30
40123;DHT22;25832;45.490;4.912;2023-09-12T00:55:03;22.60;66.30
40123;DHT22;25832;45.490;4.912;2023-09-12T00:57:30;22.60;65.80
40123;DHT22;25832;45.490;4.912;2023-09-12T00:59:57;22.60;65.00
40123;DHT22;25832;45.490;4.912;2023-09-12T01:02:24;22.60;65.10
40123;DHT22;25832;45.490;4.912;2023-09-12T01:04:50;22.60;65.30
40123;DHT22;25832;45.490;4.912;2023-09-12T01:07:16;22.60;65.50
40123;DHT22;25832;45.490;4.912;2023-09-12T01:09:42;22.50;65.30
40123;DHT22;25832;45.490;4.912;2023-09-12T01:12:08;22.50;64.50
40123;DHT22;25832;45.490;4.912;2023-09-12T01:14:34;22.50;64.10
40123;DHT22;25832;45.490;4.912;2023-09-12T01:17:00;22.50;64.40
40123;DHT22;25832;45.490;4.912;2023-09-12T01:19:29;22.50;64.70
40123;DHT22;25832;45.490;4.912;2023-09-12T01:28:24;22.40;65.20
40123;DHT22;25832;45.490;4.912;2023-09-12T01:30:53;22.30;65.30
40123;DHT22;25832;45.490;4.912;2023-09-12T01:33:19;22.30;65.60
40123;DHT22;25832;45.490;4.912;2023-09-12T01:35:46;22.20;65.70
40123;DHT22;25832;45.490;4.912;2023-09-12T01:38:13;22.10;66.00
40123;DHT22;25832;45.490;4.912;2023-09-12T01:40:59;22.10;66.20
40123;DHT22;25832;45.490;4.912;2023-09-12T01:43:26;22.10;66.60
40123;DHT22;25832;45.490;4.912;2023-09-12T01:45:56;22.00;66.70
40123;DHT22;25832;45.490;4.912;2023-09-12T01:48:26;22.00;66.80
40123;DHT22;25832;45.490;4.912;2023-09-12T01:50:52;22.00;66.60
40123;DHT22;25832;45.490;4.912;2023-09-12T01:53:19;21.90;66.60
40123;DHT22;25832;45.490;4.912;2023-09-12T01:55:46;21.80;66.60
40123;DHT22;25832;45.490;4.912;2023-09-12T01:58:13;21.90;66.70
40123;DHT22;25832;45.490;4.912;2023-09-12T02:00:42;21.80;66.90
40123;DHT22;25832;45.490;4.912;2023-09-12T02:03:08;21.70;67.00
40123;DHT22;25832;45.490;4.912;2023-09-12T02:05:33;21.70;67.10
40123;DHT22;25832;45.490;4.912;2023-09-12T02:07:59;21.70;67.30
40123;DHT22;25832;45.490;4.912;2023-09-12T02:10:27;21.60;67.20
40123;DHT22;25832;45.490;4.912;2023-09-12T02:12:52;21.60;67.30
40123;DHT22;25832;45.490;4.912;2023-09-12T02:15:18;21.60;67.20
40123;DHT22;25832;45.490;4.912;2023-09-12T02:17:44;21.50;67.30
40123;DHT22;25832;45.490;4.912;2023-09-12T02:20:09;21.50;67.60
40123;DHT22;25832;45.490;4.912;2023-09-12T02:22:36;21.40;68.00
40123;DHT22;25832;45.490;4.912;2023-09-12T02:25:03;21.40;68.40
40123;DHT22;25832;45.490;4.912;2023-09-12T02:27:30;21.40;68.60
40123;DHT22;25832;45.490;4.912;2023-09-12T02:29:55;21.40;69.40
40123;DHT22;25832;45.490;4.912;2023-09-12T02:32:21;21.30;69.00
40123;DHT22;25832;45.490;4.912;2023-09-12T02:34:47;21.20;69.20
40123;DHT22;25832;45.490;4.912;2023-09-12T02:37:12;21.20;69.20
40123;DHT22;25832;45.490;4.912;2023-09-12T02:39:38;21.20;69.20
40123;DHT22;25832;45.490;4.912;2023-09-12T02:42:04;21.20;69.10
40123;DHT22;25832;45.490;4.912;2023-09-12T02:44:30;21.20;69.30
40123;DHT22;25832;45.490;4.912;2023-09-12T02:46:55;21.20;69.30
40123;DHT22;25832;45.490;4.912;2023-09-12T02:49:21;21.30;69.40
40123;DHT22;25832;45.490;4.912;2023-09-12T02:51:46;21.30;69.30
40123;DHT22;25832;45.490;4.912;2023-09-12T02:54:12;21.30;69.30
40123;DHT22;25832;45.490;4.912;2023-09-12T02:56:38;21.30;69.30
40123;DHT22;25832;45.490;4.912;2023-09-12T02:59:03;21.30;69.50
40123;DHT22;25832;45.490;4.912;2023-09-12T03:01:30;21.20;69.50
40123;DHT22;25832;45.490;4.912;2023-09-12T03:03:57;21.20;69.40
40123;DHT22;25832;45.490;4.912;2023-09-12T03:06:23;21.20;69.60
40123;DHT22;25832;45.490;4.912;2023-09-12T03:08:49;21.20;69.40
40123;DHT22;25832;45.490;4.912;2023-09-12T03:11:15;21.20;69.70
40123;DHT22;25832;45.490;4.912;2023-09-12T03:13:41;21.10;69.80
40123;DHT22;25832;45.490;4.912;2023-09-12T03:16:14;21.10;69.90
40123;DHT22;25832;45.490;4.912;2023-09-12T03:18:40;21.10;70.20
40123;DHT22;25832;45.490;4.912;2023-09-12T03:21:06;21.10;70.30
40123;DHT22;25832;45.490;4.912;2023-09-12T03:23:32;21.00;70.70
40123;DHT22;25832;45.490;4.912;2023-09-12T03:26:05;21.00;70.80
40123;DHT22;25832;45.490;4.912;2023-09-12T03:28:31;21.00;71.30
40123;DHT22;25832;45.490;4.912;2023-09-12T03:31:12;20.90;71.40
40123;DHT22;25832;45.490;4.912;2023-09-12T03:33:39;20.90;72.00
40123;DHT22;25832;45.490;4.912;2023-09-12T03:36:06;20.90;71.80
40123;DHT22;25832;45.490;4.912;2023-09-12T03:38:32;20.80;72.20
40123;DHT22;25832;45.490;4.912;2023-09-12T03:40:58;20.80;72.80
40123;DHT22;25832;45.490;4.912;2023-09-12T03:43:24;20.80;72.40
40123;DHT22;25832;45.490;4.912;2023-09-12T03:45:50;20.70;72.30
40123;DHT22;25832;45.490;4.912;2023-09-12T03:48:16;20.60;72.70
40123;DHT22;25832;45.490;4.912;2023-09-12T03:50:41;20.50;72.60
40123;DHT22;25832;45.490;4.912;2023-09-12T03:53:07;20.50;73.40
40123;DHT22;25832;45.490;4.912;2023-09-12T03:55:32;20.40;73.90
40123;DHT22;25832;45.490;4.912;2023-09-12T03:57:58;20.40;74.40
40123;DHT22;25832;45.490;4.912;2023-09-12T04:00:24;20.40;74.30
40123;DHT22;25832;45.490;4.912;2023-09-12T04:02:49;20.40;74.70
40123;DHT22;25832;45.490;4.912;2023-09-12T04:05:15;20.40;74.80
40123;DHT22;25832;45.490;4.912;2023-09-12T04:07:41;20.40;74.90
40123;DHT22;25832;45.490;4.912;2023-09-12T04:10:07;20.30;75.10
40123;DHT22;25832;45.490;4.912;2023-09-12T04:12:33;20.30;75.10
40123;DHT22;25832;45.490;4.912;2023-09-12T04:14:59;20.30;75.20
40123;DHT22;25832;45.490;4.912;2023-09-12T04:17:24;20.20;75.20
40123;DHT22;25832;45.490;4.912;2023-09-12T04:19:50;20.20;75.30
40123;DHT22;25832;45.490;4.912;2023-09-12T04:22:16;20.20;75.50
40123;DHT22;25832;45.490;4.912;2023-09-12T04:24:41;20.10;75.80
40123;DHT22;25832;45.490;4.912;2023-09-12T04:27:07;20.00;76.30
40123;DHT22;25832;45.490;4.912;2023-09-12T04:29:34;20.00;76.40
40123;DHT22;25832;45.490;4.912;2023-09-12T04:32:04;19.90;76.70
40123;DHT22;25832;45.490;4.912;2023-09-12T04:34:30;19.90;77.20
40123;DHT22;25832;45.490;4.912;2023-09-12T04:36:56;19.80;77.20
40123;DHT22;25832;45.490;4.912;2023-09-12T04:39:22;19.80;77.70
40123;DHT22;25832;45.490;4.912;2023-09-12T04:41:47;19.70;78.00
40123;DHT22;25832;45.490;4.912;2023-09-12T04:44:13;19.70;78.40
40123;DHT22;25832;45.490;4.912;2023-09-12T04:46:39;19.60;78.50
40123;DHT22;25832;45.490;4.912;2023-09-12T04:49:04;19.60;78.80
40123;DHT22;25832;45.490;4.912;2023-09-12T04:51:30;19.50;78.70
40123;DHT22;25832;45.490;4.912;2023-09-12T04:53:56;19.50;78.80
40123;DHT22;25832;45.490;4.912;2023-09-12T04:56:21;19.50;78.80
40123;DHT22;25832;45.490;4.912;2023-09-12T04:58:50;19.50;79.00
40123;DHT22;25832;45.490;4.912;2023-09-12T05:01:15;19.40;79.20
40123;DHT22;25832;45.490;4.912;2023-09-12T05:03:42;19.40;79.30
40123;DHT22;25832;45.490;4.912;2023-09-12T05:06:07;19.50;79.40
40123;DHT22;25832;45.490;4.912;2023-09-12T05:08:33;19.50;79.50
40123;DHT22;25832;45.490;4.912;2023-09-12T05:10:59;19.40;79.70
40123;DHT22;25832;45.490;4.912;2023-09-12T05:13:24;19.50;79.90
40123;DHT22;25832;45.490;4.912;2023-09-12T05:15:50;19.50;79.90
40123;DHT22;25832;45.490;4.912;2023-09-12T05:18:16;19.50;79.70
40123;DHT22;25832;45.490;4.912;2023-09-12T05:20:41;19.60;79.80
40123;DHT22;25832;45.490;4.912;2023-09-12T05:23:07;19.50;79.90
40123;DHT22;25832;45.490;4.912;2023-09-12T05:25:32;19.50;79.90
40123;DHT22;25832;45.490;4.912;2023-09-12T05:27:58;19.40;80.10
40123;DHT22;25832;45.490;4.912;2023-09-12T05:30:24;19.40;80.50
40123;DHT22;25832;45.490;4.912;2023-09-12T05:32:49;19.40;80.60
40123;DHT22;25832;45.490;4.912;2023-09-12T05:35:15;19.40;81.20
40123;DHT22;25832;45.490;4.912;2023-09-12T05:37:41;19.40;80.80
40123;DHT22;25832;45.490;4.912;2023-09-12T05:40:06;19.40;81.40
40123;DHT22;25832;45.490;4.912;2023-09-12T05:42:32;19.40;81.00
40123;DHT22;25832;45.490;4.912;2023-09-12T05:44:58;19.50;81.20
40123;DHT22;25832;45.490;4.912;2023-09-12T05:47:24;19.50;81.20
40123;DHT22;25832;45.490;4.912;2023-09-12T05:49:50;19.50;81.40
40123;DHT22;25832;45.490;4.912;2023-09-12T05:52:15;19.50;81.40
40123;DHT22;25832;45.490;4.912;2023-09-12T05:54:41;19.50;81.50
40123;DHT22;25832;45.490;4.912;2023-09-12T05:57:08;19.50;81.80
40123;DHT22;25832;45.490;4.912;2023-09-12T05:59:38;19.40;81.90
40123;DHT22;25832;45.490;4.912;2023-09-12T06:02:05;19.40;82.10
40123;DHT22;25832;45.490;4.912;2023-09-12T06:04:32;19.40;82.20
40123;DHT22;25832;45.490;4.912;2023-09-12T06:06:58;19.40;82.40
40123;DHT22;25832;45.490;4.912;2023-09-12T06:09:23;19.30;82.50
40123;DHT22;25832;45.490;4.912;2023-09-12T06:11:49;19.40;82.60
40123;DHT22;25832;45.490;4.912;2023-09-12T06:14:14;19.40;82.60
40123;DHT22;25832;45.490;4.912;2023-09-12T06:16:40;19.50;82.70
40123;DHT22;25832;45.490;4.912;2023-09-12T06:19:06;19.50;82.20
40123;DHT22;25832;45.490;4.912;2023-09-12T06:21:31;19.60;82.30
40123;DHT22;25832;45.490;4.912;2023-09-12T06:24:15;19.60;82.40
40123;DHT22;25832;45.490;4.912;2023-09-12T06:26:41;19.60;81.80
40123;DHT22;25832;45.490;4.912;2023-09-12T06:29:07;19.70;81.80
40123;DHT22;25832;45.490;4.912;2023-09-12T06:31:33;19.70;81.90
40123;DHT22;25832;45.490;4.912;2023-09-12T06:33:59;19.90;82.20
40123;DHT22;25832;45.490;4.912;2023-09-12T06:36:25;19.90;81.70
40123;DHT22;25832;45.490;4.912;2023-09-12T06:38:51;19.90;81.70
40123;DHT22;25832;45.490;4.912;2023-09-12T06:41:20;19.90;81.50
40123;DHT22;25832;45.490;4.912;2023-09-12T06:43:46;19.90;81.60
40123;DHT22;25832;45.490;4.912;2023-09-12T06:46:11;20.00;81.60
40123;DHT22;25832;45.490;4.912;2023-09-12T06:48:37;20.00;81.90
40123;DHT22;25832;45.490;4.912;2023-09-12T06:51:08;20.00;82.00
40123;DHT22;25832;45.490;4.912;2023-09-12T06:53:34;20.10;82.20
40123;DHT22;25832;45.490;4.912;2023-09-12T06:56:00;20.20;82.20
40123;DHT22;25832;45.490;4.912;2023-09-12T06:58:25;20.30;82.30
40123;DHT22;25832;45.490;4.912;2023-09-12T07:00:51;20.30;82.30
40123;DHT22;25832;45.490;4.912;2023-09-12T07:03:17;20.30;82.50
40123;DHT22;25832;45.490;4.912;2023-09-12T07:05:43;20.40;82.70
40123;DHT22;25832;45.490;4.912;2023-09-12T07:08:09;20.50;82.80
40123;DHT22;25832;45.490;4.912;2023-09-12T07:10:35;20.50;82.90
40123;DHT22;25832;45.490;4.912;2023-09-12T07:13:01;20.50;83.30
40123;DHT22;25832;45.490;4.912;2023-09-12T07:15:27;20.50;83.10
40123;DHT22;25832;45.490;4.912;2023-09-12T07:17:53;20.60;83.30
40123;DHT22;25832;45.490;4.912;2023-09-12T07:20:19;20.70;82.90
40123;DHT22;25832;45.490;4.912;2023-09-12T07:22:46;20.80;83.40
40123;DHT22;25832;45.490;4.912;2023-09-12T07:25:14;20.90;82.90
40123;DHT22;25832;45.490;4.912;2023-09-12T07:27:40;21.00;82.40
40123;DHT22;25832;45.490;4.912;2023-09-12T07:30:07;21.00;82.60
40123;DHT22;25832;45.490;4.912;2023-09-12T07:32:33;21.00;82.50
40123;DHT22;25832;45.490;4.912;2023-09-12T07:34:58;21.10;82.10
40123;DHT22;25832;45.490;4.912;2023-09-12T07:37:24;21.10;82.20
40123;DHT22;25832;45.490;4.912;2023-09-12T07:39:49;21.10;82.50
40123;DHT22;25832;45.490;4.912;2023-09-12T07:42:15;21.20;82.50
40123;DHT22;25832;45.490;4.912;2023-09-12T07:44:41;21.20;82.40
40123;DHT22;25832;45.490;4.912;2023-09-12T07:47:07;21.20;82.70
40123;DHT22;25832;45.490;4.912;2023-09-12T07:49:33;21.20;82.50
40123;DHT22;25832;45.490;4.912;2023-09-12T07:51:58;21.20;82.70
40123;DHT22;25832;45.490;4.912;2023-09-12T07:54:24;21.30;82.50
40123;DHT22;25832;45.490;4.912;2023-09-12T07:56:50;21.20;82.80
40123;DHT22;25832;45.490;4.912;2023-09-12T07:59:15;21.30;82.90
40123;DHT22;25832;45.490;4.912;2023-09-12T08:01:41;21.40;83.70
40123;DHT22;25832;45.490;4.912;2023-09-12T08:04:06;21.70;82.80
40123;DHT22;25832;45.490;4.912;2023-09-12T08:06:32;22.00;81.80
40123;DHT22;25832;45.490;4.912;2023-09-12T08:08:58;22.40;80.60
40123;DHT22;25832;45.490;4.912;2023-09-12T08:11:24;22.70;79.10
40123;DHT22;25832;45.490;4.912;2023-09-12T08:13:50;23.10;79.60
40123;DHT22;25832;45.490;4.912;2023-09-12T08:16:16;23.40;78.50
40123;DHT22;25832;45.490;4.912;2023-09-12T08:18:42;23.80;77.80
40123;DHT22;25832;45.490;4.912;2023-09-12T08:21:07;24.10;77.80
40123;DHT22;25832;45.490;4.912;2023-09-12T08:23:33;24.30;77.00
40123;DHT22;25832;45.490;4.912;2023-09-12T08:25:59;24.30;75.50
40123;DHT22;25832;45.490;4.912;2023-09-12T08:28:25;24.10;75.30
40123;DHT22;25832;45.490;4.912;2023-09-12T08:30:51;23.90;76.40
40123;DHT22;25832;45.490;4.912;2023-09-12T08:33:17;24.00;76.20
40123;DHT22;25832;45.490;4.912;2023-09-12T08:35:43;24.10;77.60
40123;DHT22;25832;45.490;4.912;2023-09-12T08:38:09;24.40;75.70
40123;DHT22;25832;45.490;4.912;2023-09-12T08:40:34;24.60;74.50
40123;DHT22;25832;45.490;4.912;2023-09-12T08:43:01;24.80;73.70
40123;DHT22;25832;45.490;4.912;2023-09-12T08:45:29;25.00;72.90
40123;DHT22;25832;45.490;4.912;2023-09-12T08:47:58;25.20;72.60
40123;DHT22;25832;45.490;4.912;2023-09-12T08:50:24;25.40;72.70
40123;DHT22;25832;45.490;4.912;2023-09-12T08:52:50;25.60;73.00
40123;DHT22;25832;45.490;4.912;2023-09-12T08:55:16;25.60;71.70
40123;DHT22;25832;45.490;4.912;2023-09-12T08:57:44;25.80;72.20
40123;DHT22;25832;45.490;4.912;2023-09-12T09:00:13;25.90;72.00
40123;DHT22;25832;45.490;4.912;2023-09-12T09:02:43;26.10;71.20
40123;DHT22;25832;45.490;4.912;2023-09-12T09:05:10;26.20;71.00
40123;DHT22;25832;45.490;4.912;2023-09-12T09:07:41;26.40;71.60
40123;DHT22;25832;45.490;4.912;2023-09-12T09:10:15;26.60;70.40
40123;DHT22;25832;45.490;4.912;2023-09-12T09:12:44;26.80;70.20
40123;DHT22;25832;45.490;4.912;2023-09-12T09:15:27;27.00;70.10
40123;DHT22;25832;45.490;4.912;2023-09-12T09:17:54;27.10;69.60
40123;DHT22;25832;45.490;4.912;2023-09-12T09:20:31;27.20;67.80
40123;DHT22;25832;45.490;4.912;2023-09-12T09:22:59;27.40;68.70
40123;DHT22;25832;45.490;4.912;2023-09-12T09:25:25;27.50;69.10
40123;DHT22;25832;45.490;4.912;2023-09-12T09:27:51;27.70;69.40
40123;DHT22;25832;45.490;4.912;2023-09-12T09:30:17;27.80;69.60
40123;DHT22;25832;45.490;4.912;2023-09-12T09:32:44;27.90;69.40
40123;DHT22;25832;45.490;4.912;2023-09-12T09:35:11;27.90;69.40
40123;DHT22;25832;45.490;4.912;2023-09-12T09:37:37;28.10;69.60
40123;DHT22;25832;45.490;4.912;2023-09-12T09:40:08;28.20;69.60
40123;DHT22;25832;45.490;4.912;2023-09-12T09:42:35;28.40;69.40
40123;DHT22;25832;45.490;4.912;2023-09-12T09:45:01;28.40;69.10
40123;DHT22;25832;45.490;4.912;2023-09-12T09:47:28;28.50;68.90
40123;DHT22;25832;45.490;4.912;2023-09-12T09:49:53;28.60;67.90
40123;DHT22;25832;45.490;4.912;2023-09-12T09:52:26;28.60;68.40
40123;DHT22;25832;45.490;4.912;2023-09-12T09:54:53;28.70;68.10
40123;DHT22;25832;45.490;4.912;2023-09-12T09:57:18;28.70;67.50
40123;DHT22;25832;45.490;4.912;2023-09-12T09:59:49;28.70;67.00
40123;DHT22;25832;45.490;4.912;2023-09-12T10:02:18;28.70;67.20
40123;DHT22;25832;45.490;4.912;2023-09-12T10:04:48;28.60;67.10
40123;DHT22;25832;45.490;4.912;2023-09-12T10:07:14;28.60;67.30
40123;DHT22;25832;45.490;4.912;2023-09-12T10:09:40;28.70;67.00
40123;DHT22;25832;45.490;4.912;2023-09-12T10:12:08;28.70;67.20
40123;DHT22;25832;45.490;4.912;2023-09-12T10:14:34;28.70;67.60
40123;DHT22;25832;45.490;4.912;2023-09-12T10:17:01;28.90;67.90
40123;DHT22;25832;45.490;4.912;2023-09-12T10:19:50;29.00;67.90
40123;DHT22;25832;45.490;4.912;2023-09-12T10:24:43;29.20;67.80
40123;DHT22;25832;45.490;4.912;2023-09-12T10:27:11;29.40;68.50
40123;DHT22;25832;45.490;4.912;2023-09-12T10:29:37;29.40;68.00
40123;DHT22;25832;45.490;4.912;2023-09-12T10:32:03;29.30;68.70
40123;DHT22;25832;45.490;4.912;2023-09-12T10:34:30;29.40;68.60
40123;DHT22;25832;45.490;4.912;2023-09-12T10:36:58;29.40;69.40
40123;DHT22;25832;45.490;4.912;2023-09-12T10:39:27;29.50;69.90
40123;DHT22;25832;45.490;4.912;2023-09-12T10:41:54;29.50;69.20
40123;DHT22;25832;45.490;4.912;2023-09-12T10:44:20;29.50;69.80
40123;DHT22;25832;45.490;4.912;2023-09-12T10:46:47;29.60;69.60
40123;DHT22;25832;45.490;4.912;2023-09-12T10:49:15;29.70;68.40
40123;DHT22;25832;45.490;4.912;2023-09-12T10:51:42;29.70;69.30
40123;DHT22;25832;45.490;4.912;2023-09-12T10:54:08;29.80;69.30
40123;DHT22;25832;45.490;4.912;2023-09-12T10:56:35;29.90;69.80
40123;DHT22;25832;45.490;4.912;2023-09-12T11:01:36;29.80;68.40
40123;DHT22;25832;45.490;4.912;2023-09-12T11:06:49;29.90;69.00
40123;DHT22;25832;45.490;4.912;2023-09-12T11:09:16;30.00;68.40
40123;DHT22;25832;45.490;4.912;2023-09-12T11:11:45;30.00;68.20
40123;DHT22;25832;45.490;4.912;2023-09-12T11:14:12;30.10;68.20
40123;DHT22;25832;45.490;4.912;2023-09-12T11:16:38;30.10;68.20
40123;DHT22;25832;45.490;4.912;2023-09-12T11:19:20;30.20;67.30
40123;DHT22;25832;45.490;4.912;2023-09-12T11:21:50;30.20;67.40
40123;DHT22;25832;45.490;4.912;2023-09-12T11:24:17;30.10;68.40
40123;DHT22;25832;45.490;4.912;2023-09-12T11:27:02;30.00;68.50
40123;DHT22;25832;45.490;4.912;2023-09-12T11:29:38;30.00;68.40
40123;DHT22;25832;45.490;4.912;2023-09-12T11:32:05;30.20;68.70
40123;DHT22;25832;45.490;4.912;2023-09-12T11:34:41;30.30;68.80
40123;DHT22;25832;45.490;4.912;2023-09-12T11:37:07;30.30;65.50
40123;DHT22;25832;45.490;4.912;2023-09-12T11:39:35;30.20;68.20
40123;DHT22;25832;45.490;4.912;2023-09-12T11:42:03;30.30;68.30
40123;DHT22;25832;45.490;4.912;2023-09-12T11:44:30;30.30;69.00
40123;DHT22;25832;45.490;4.912;2023-09-12T11:46:57;30.50;68.40
40123;DHT22;25832;45.490;4.912;2023-09-12T11:49:35;30.50;68.10
40123;DHT22;25832;45.490;4.912;2023-09-12T11:52:01;30.50;67.90
40123;DHT22;25832;45.490;4.912;2023-09-12T11:54:29;30.60;68.00
40123;DHT22;25832;45.490;4.912;2023-09-12T11:56:57;30.60;67.20
40123;DHT22;25832;45.490;4.912;2023-09-12T11:59:36;30.70;66.40
40123;DHT22;25832;45.490;4.912;2023-09-12T12:02:06;30.80;66.90
40123;DHT22;25832;45.490;4.912;2023-09-12T12:04:32;30.90;67.20
40123;DHT22;25832;45.490;4.912;2023-09-12T12:06:58;31.00;66.70
40123;DHT22;25832;45.490;4.912;2023-09-12T12:09:24;31.10;66.80
40123;DHT22;25832;45.490;4.912;2023-09-12T12:11:49;31.20;66.40
40123;DHT22;25832;45.490;4.912;2023-09-12T12:14:16;31.20;66.50
40123;DHT22;25832;45.490;4.912;2023-09-12T12:16:46;31.10;66.70
40123;DHT22;25832;45.490;4.912;2023-09-12T12:19:13;31.00;67.00
40123;DHT22;25832;45.490;4.912;2023-09-12T12:21:40;30.90;66.90
40123;DHT22;25832;45.490;4.912;2023-09-12T12:24:09;30.70;66.10
40123;DHT22;25832;45.490;4.912;2023-09-12T12:26:35;30.70;65.70
40123;DHT22;25832;45.490;4.912;2023-09-12T12:29:02;30.70;66.40
40123;DHT22;25832;45.490;4.912;2023-09-12T12:31:28;30.70;65.00
40123;DHT22;25832;45.490;4.912;2023-09-12T13:03:58;30.30;63.80
40123;DHT22;25832;45.490;4.912;2023-09-12T13:06:23;29.70;64.40
40123;DHT22;25832;45.490;4.912;2023-09-12T13:08:51;29.60;64.60
40123;DHT22;25832;45.490;4.912;2023-09-12T13:11:17;29.60;64.70
40123;DHT22;25832;45.490;4.912;2023-09-12T13:13:43;29.40;64.70
40123;DHT22;25832;45.490;4.912;2023-09-12T13:16:10;29.30;64.80
40123;DHT22;25832;45.490;4.912;2023-09-12T13:18:40;29.30;64.90
40123;DHT22;25832;45.490;4.912;2023-09-12T13:21:06;29.30;65.50
40123;DHT22;25832;45.490;4.912;2023-09-12T13:23:35;29.20;65.50
40123;DHT22;25832;45.490;4.912;2023-09-12T13:26:00;29.20;66.10
40123;DHT22;25832;45.490;4.912;2023-09-12T13:28:26;29.20;66.70
40123;DHT22;25832;45.490;4.912;2023-09-12T13:30:52;29.20;67.00
40123;DHT22;25832;45.490;4.912;2023-09-12T13:33:18;29.30;66.90
40123;DHT22;25832;45.490;4.912;2023-09-12T13:35:44;29.40;67.10
40123;DHT22;25832;45.490;4.912;2023-09-12T13:38:10;29.40;67.40
40123;DHT22;25832;45.490;4.912;2023-09-12T13:40:39;29.40;67.60
40123;DHT22;25832;45.490;4.912;2023-09-12T13:43:06;29.30;67.90
40123;DHT22;25832;45.490;4.912;2023-09-12T13:45:32;29.30;67.90
40123;DHT22;25832;45.490;4.912;2023-09-12T13:47:58;29.30;68.40
40123;DHT22;25832;45.490;4.912;2023-09-12T13:50:25;29.30;68.90
40123;DHT22;25832;45.490;4.912;2023-09-12T13:52:52;29.50;68.50
40123;DHT22;25832;45.490;4.912;2023-09-12T13:55:18;29.50;68.30
40123;DHT22;25832;45.490;4.912;2023-09-12T13:57:44;29.60;68.90
40123;DHT22;25832;45.490;4.912;2023-09-12T14:00:10;29.50;68.90
40123;DHT22;25832;45.490;4.912;2023-09-12T14:02:35;29.50;69.60
40123;DHT22;25832;45.490;4.912;2023-09-12T14:05:01;29.40;69.70
40123;DHT22;25832;45.490;4.912;2023-09-12T14:07:27;29.30;69.30
40123;DHT22;25832;45.490;4.912;2023-09-12T14:09:52;29.20;69.70
40123;DHT22;25832;45.490;4.912;2023-09-12T14:12:22;29.20;70.30
40123;DHT22;25832;45.490;4.912;2023-09-12T14:14:47;29.10;71.30
40123;DHT22;25832;45.490;4.912;2023-09-12T14:17:14;29.00;72.30
40123;DHT22;25832;45.490;4.912;2023-09-12T14:19:39;28.80;72.20
40123;DHT22;25832;45.490;4.912;2023-09-12T14:22:05;28.80;72.80
40123;DHT22;25832;45.490;4.912;2023-09-12T14:24:31;28.70;73.40
40123;DHT22;25832;45.490;4.912;2023-09-12T14:26:57;28.60;73.80
40123;DHT22;25832;45.490;4.912;2023-09-12T14:29:22;28.60;74.10
40123;DHT22;25832;45.490;4.912;2023-09-12T14:31:49;28.50;74.50
40123;DHT22;25832;45.490;4.912;2023-09-12T14:34:19;28.30;74.80
40123;DHT22;25832;45.490;4.912;2023-09-12T14:36:45;28.20;74.30
40123;DHT22;25832;45.490;4.912;2023-09-12T14:39:13;28.00;74.60
40123;DHT22;25832;45.490;4.912;2023-09-12T14:41:40;27.90;75.10
40123;DHT22;25832;45.490;4.912;2023-09-12T14:44:06;27.80;74.90
40123;DHT22;25832;45.490;4.912;2023-09-12T14:46:31;27.70;74.80
40123;DHT22;25832;45.490;4.912;2023-09-12T14:48:57;27.50;75.50
40123;DHT22;25832;45.490;4.912;2023-09-12T14:51:23;27.40;75.90
40123;DHT22;25832;45.490;4.912;2023-09-12T14:53:49;27.40;76.20
40123;DHT22;25832;45.490;4.912;2023-09-12T14:56:15;27.30;76.10
40123;DHT22;25832;45.490;4.912;2023-09-12T14:58:41;27.20;76.40
40123;DHT22;25832;45.490;4.912;2023-09-12T15:01:06;27.10;76.80
40123;DHT22;25832;45.490;4.912;2023-09-12T15:03:32;27.10;77.50
40123;DHT22;25832;45.490;4.912;2023-09-12T15:06:04;27.00;77.90
40123;DHT22;25832;45.490;4.912;2023-09-12T15:08:30;26.90;78.50
40123;DHT22;25832;45.490;4.912;2023-09-12T15:10:56;26.90;79.00
40123;DHT22;25832;45.490;4.912;2023-09-12T15:13:21;26.80;79.20
40123;DHT22;25832;45.490;4.912;2023-09-12T15:15:47;26.70;79.40
40123;DHT22;25832;45.490;4.912;2023-09-12T15:18:12;26.70;79.90
40123;DHT22;25832;45.490;4.912;2023-09-12T15:20:38;26.50;80.30
40123;DHT22;25832;45.490;4.912;2023-09-12T15:23:04;26.40;80.60
40123;DHT22;25832;45.490;4.912;2023-09-12T15:25:30;26.40;81.10
40123;DHT22;25832;45.490;4.912;2023-09-12T15:27:58;26.30;81.50
40123;DHT22;25832;45.490;4.912;2023-09-12T15:30:24;26.20;82.00
40123;DHT22;25832;45.490;4.912;2023-09-12T15:32:49;26.10;82.40
40123;DHT22;25832;45.490;4.912;2023-09-12T15:35:15;26.00;82.90
40123;DHT22;25832;45.490;4.912;2023-09-12T15:37:41;25.90;83.30
40123;DHT22;25832;45.490;4.912;2023-09-12T15:40:07;25.90;83.60
40123;DHT22;25832;45.490;4.912;2023-09-12T15:42:33;25.90;83.90
40123;DHT22;25832;45.490;4.912;2023-09-12T15:44:58;25.80;84.20
40123;DHT22;25832;45.490;4.912;2023-09-12T15:47:24;25.70;84.40
40123;DHT22;25832;45.490;4.912;2023-09-12T15:49:50;25.70;84.50
40123;DHT22;25832;45.490;4.912;2023-09-12T15:52:15;25.70;84.70
40123;DHT22;25832;45.490;4.912;2023-09-12T15:54:41;25.60;84.90
40123;DHT22;25832;45.490;4.912;2023-09-12T15:57:07;25.70;85.00
40123;DHT22;25832;45.490;4.912;2023-09-12T15:59:32;25.70;85.10
40123;DHT22;25832;45.490;4.912;2023-09-12T16:01:58;25.70;85.10
40123;DHT22;25832;45.490;4.912;2023-09-12T16:04:24;25.70;85.30
40123;DHT22;25832;45.490;4.912;2023-09-12T16:06:52;25.70;85.40
40123;DHT22;25832;45.490;4.912;2023-09-12T16:09:17;25.70;85.40
40123;DHT22;25832;45.490;4.912;2023-09-12T16:11:43;25.80;85.60